If you wish to contribute or participate in the discussions about articles you are invited to join SKYbrary as a registered user

 Actions

Metz-Nancy-Lorraine Airport

From SKYbrary Wiki

LFJL
Airport
ICAO: LFJL – IATA: ETZ
Summary
Name Metz-Nancy-Lorraine Airport
Region Europe
Territory France FR.gif
Location , Lorraine
Serving Metz
Elevation 265.176 m
870 ft
870 ft265.176 m
Type medium airport
Coordinates 48° 58' 55.71" N, 6° 15' 4.75" E
Runways
Designator Length Width Surface ROPS
4/22 2500 m8,202.1 ft
45 m147.638 ft
ASP yes/yes


METAR
Observation LFJL 230800Z AUTO 07011KT 5000 BR OVC007 12/12 Q1015 NOSIG
Station Metz-Nancy-Lorraine
Date/Time 23 October 2019 08:00:00
Wind direction 70°
Wind speed 11 kts
Lowest cloud amount overcast
Temperature 12°C
Dew point 12°C
Humidity 100%
QNH 1015 hPa
Weather condition n/a